createdAt,value
2018-03-28T00:00:44.480Z,20.20
2018-03-28T00:03:14.176Z,20.37
2018-03-28T00:05:43.022Z,19.47
2018-03-28T00:08:11.920Z,20.73
2018-03-28T00:10:40.761Z,19.70
2018-03-28T00:13:10.256Z,19.53
2018-03-28T00:15:39.116Z,20.23
2018-03-28T00:18:07.948Z,18.90
2018-03-28T00:20:36.800Z,21.47
2018-03-28T00:23:05.664Z,19.80
2018-03-28T00:25:34.524Z,20.60
2018-03-28T00:28:03.430Z,20.90
2018-03-28T00:30:32.278Z,21.07
2018-03-28T00:33:01.580Z,20.77
2018-03-28T00:35:30.440Z,20.20
2018-03-28T00:38:01.328Z,21.50
2018-03-28T00:40:30.399Z,20.93
2018-03-28T00:42:59.946Z,19.83
2018-03-28T00:45:29.095Z,20.93
2018-03-28T00:47:57.972Z,20.73
2018-03-28T00:50:26.807Z,20.40
2018-03-28T00:52:55.654Z,21.63
2018-03-28T00:55:24.537Z,20.80
2018-03-28T00:57:53.412Z,21.03
2018-03-28T01:00:22.247Z,22.23
2018-03-28T01:02:52.059Z,21.73
2018-03-28T01:05:20.893Z,22.37
2018-03-28T01:07:50.656Z,22.63
2018-03-28T01:10:19.754Z,22.27
2018-03-28T01:12:48.596Z,22.33
2018-03-28T01:15:18.690Z,22.00
2018-03-28T01:17:47.583Z,22.93
2018-03-28T01:20:16.472Z,23.50
2018-03-28T01:22:45.312Z,23.43
2018-03-28T01:25:14.170Z,22.50
2018-03-28T01:27:43.042Z,21.43
2018-03-28T01:30:11.885Z,22.97
2018-03-28T01:32:40.764Z,22.00
2018-03-28T01:35:09.596Z,22.30
2018-03-28T01:37:38.448Z,22.30
2018-03-28T01:40:07.992Z,22.37
2018-03-28T01:42:37.501Z,22.60
2018-03-28T01:45:06.863Z,21.63
2018-03-28T01:47:35.721Z,23.03
2018-03-28T01:50:04.615Z,22.30
2018-03-28T01:52:33.456Z,21.40
2018-03-28T01:55:04.112Z,22.30
2018-03-28T01:57:32.960Z,22.73
2018-03-28T02:00:02.115Z,21.77
2018-03-28T02:02:30.969Z,21.63
2018-03-28T02:04:59.810Z,23.50
2018-03-28T02:07:29.183Z,22.27
2018-03-28T02:09:58.049Z,22.37
2018-03-28T02:12:26.897Z,23.03
2018-03-28T02:14:55.738Z,21.40
2018-03-28T02:17:24.640Z,21.93
2018-03-28T02:19:53.484Z,20.67
2018-03-28T02:22:23.262Z,21.67
2018-03-28T02:24:52.990Z,21.67
2018-03-28T02:27:22.573Z,21.27
2018-03-28T02:29:51.440Z,22.50
2018-03-28T02:32:20.331Z,21.37
2018-03-28T02:34:49.168Z,22.50
2018-03-28T02:37:18.864Z,22.30
2018-03-28T02:39:47.775Z,22.43
2018-03-28T02:42:16.655Z,23.17
2018-03-28T02:44:45.608Z,22.30
2018-03-28T02:47:14.485Z,22.53
2018-03-28T02:49:43.331Z,23.60
2018-03-28T02:52:12.177Z,22.87
2018-03-28T02:54:41.051Z,23.13
2018-03-28T02:57:09.912Z,22.57
2018-03-28T02:59:38.780Z,22.77
2018-03-28T03:02:07.659Z,22.03
2018-03-28T03:04:36.527Z,21.73
2018-03-28T03:07:05.373Z,21.37
2018-03-28T03:09:34.238Z,22.40
2018-03-28T03:12:03.119Z,22.37
2018-03-28T03:14:31.966Z,21.30
2018-03-28T03:17:00.841Z,22.40
2018-03-28T03:19:30.231Z,22.53
2018-03-28T03:21:59.078Z,22.57
2018-03-28T03:24:27.944Z,23.53
2018-03-28T03:26:56.799Z,23.87
2018-03-28T03:29:26.211Z,22.87
2018-03-28T03:31:55.097Z,24.50
2018-03-28T03:34:23.955Z,22.70
2018-03-28T03:36:52.865Z,23.60
2018-03-28T03:39:21.989Z,22.00
2018-03-28T03:41:51.755Z,23.70
2018-03-28T03:44:20.659Z,21.87
2018-03-28T03:46:50.175Z,23.37
2018-03-28T03:49:19.607Z,22.93
2018-03-28T03:51:48.966Z,23.37
2018-03-28T03:54:17.831Z,21.00
2018-03-28T03:56:47.499Z,23.37
2018-03-28T03:59:16.338Z,24.63
2018-03-28T04:01:47.414Z,24.37
2018-03-28T04:04:16.386Z,23.57
2018-03-28T04:06:45.792Z,24.17
2018-03-28T04:09:14.633Z,23.47
2018-03-28T04:11:43.471Z,26.80
2018-03-28T04:14:12.349Z,24.23
2018-03-28T04:16:41.190Z,25.27
2018-03-28T04:19:10.029Z,25.23
2018-03-28T04:21:38.895Z,24.80
2018-03-28T04:24:07.948Z,25.83
2018-03-28T04:26:37.747Z,24.63
2018-03-28T04:29:06.633Z,25.83
2018-03-28T04:31:35.475Z,25.07
2018-03-28T04:34:04.867Z,24.37
2018-03-28T04:36:33.806Z,25.50
2018-03-28T04:39:03.545Z,24.00
2018-03-28T04:41:32.380Z,23.60
2018-03-28T04:44:01.269Z,24.53
2018-03-28T04:46:30.879Z,24.10
2018-03-28T04:48:59.767Z,24.23
2018-03-28T04:51:28.671Z,23.87
2018-03-28T04:53:57.521Z,24.03
2018-03-28T04:56:26.386Z,24.43
2018-03-28T04:58:55.251Z,22.83
2018-03-28T05:01:24.123Z,23.00
2018-03-28T05:03:52.981Z,23.53
2018-03-28T05:06:22.673Z,20.43
2018-03-28T05:08:51.511Z,21.50
2018-03-28T05:11:21.437Z,21.20
2018-03-28T05:13:50.294Z,21.27
2018-03-28T05:16:19.163Z,21.77
2018-03-28T05:18:48.660Z,21.37
2018-03-28T05:21:17.514Z,23.07
2018-03-28T05:23:46.355Z,21.57
2018-03-28T05:26:18.108Z,22.83
2018-03-28T05:28:46.948Z,22.70
2018-03-28T05:31:15.788Z,22.17
2018-03-28T05:33:44.738Z,22.10
2018-03-28T05:36:14.347Z,23.90
2018-03-28T05:38:43.332Z,21.03
2018-03-28T05:41:12.217Z,22.40
2018-03-28T05:43:42.119Z,22.37
2018-03-28T05:46:11.653Z,23.77
2018-03-28T05:48:41.326Z,21.93
2018-03-28T05:51:10.172Z,23.13
2018-03-28T05:53:39.073Z,23.83
2018-03-28T05:56:07.948Z,23.27
2018-03-28T05:58:37.455Z,22.57
2018-03-28T06:01:07.223Z,23.20
2018-03-28T06:03:36.112Z,25.30
2018-03-28T06:06:08.677Z,24.90
2018-03-28T06:08:37.549Z,26.17
2018-03-28T06:11:07.092Z,24.10
2018-03-28T06:13:35.938Z,26.73
2018-03-28T06:16:04.885Z,26.37
2018-03-28T06:18:34.663Z,29.33
2018-03-28T06:21:03.539Z,27.07
2018-03-28T06:23:32.415Z,29.33
2018-03-28T06:26:03.929Z,29.20
2018-03-28T06:28:33.035Z,31.40
2018-03-28T06:31:02.637Z,33.13
2018-03-28T06:33:32.181Z,32.30
2018-03-28T06:36:01.848Z,29.13
2018-03-28T06:38:30.695Z,31.50
2018-03-28T06:40:59.619Z,29.87
2018-03-28T06:43:34.915Z,31.17
2018-03-28T06:46:03.817Z,28.10
2018-03-28T06:48:32.755Z,29.57
2018-03-28T06:51:01.616Z,27.80
2018-03-28T06:53:30.470Z,28.63
2018-03-28T06:55:59.354Z,27.87
2018-03-28T06:58:28.199Z,28.50
2018-03-28T07:00:57.037Z,27.07
2018-03-28T07:03:25.910Z,29.73
2018-03-28T07:05:54.758Z,31.77
2018-03-28T07:08:23.703Z,29.47
2018-03-28T07:10:52.567Z,26.93
2018-03-28T07:13:22.357Z,25.50
2018-03-28T07:15:51.194Z,24.93
2018-03-28T07:18:20.065Z,30.13
2018-03-28T07:20:49.481Z,26.60
2018-03-28T07:23:18.369Z,27.07
2018-03-28T07:25:47.891Z,23.83
2018-03-28T07:28:16.737Z,31.27
2018-03-28T07:30:45.575Z,20.87
2018-03-28T07:33:14.471Z,22.20
2018-03-28T07:35:43.311Z,21.10
2018-03-28T07:38:12.185Z,22.03
2018-03-28T07:40:41.514Z,19.97
2018-03-28T07:43:10.411Z,21.40
2018-03-28T07:45:39.243Z,20.47
2018-03-28T07:48:08.583Z,20.43
2018-03-28T07:50:37.459Z,19.57
2018-03-28T07:53:06.296Z,19.47
2018-03-28T07:55:35.159Z,21.27
2018-03-28T07:58:04.013Z,20.63
2018-03-28T08:00:32.861Z,20.50
2018-03-28T08:03:01.747Z,22.07
2018-03-28T08:05:30.629Z,21.50
2018-03-28T08:07:59.512Z,21.57
2018-03-28T08:10:29.187Z,21.53
2018-03-28T08:12:58.030Z,22.83
2018-03-28T08:15:26.866Z,22.10
2018-03-28T08:17:55.741Z,21.43
2018-03-28T08:20:24.612Z,23.30
2018-03-28T08:22:53.464Z,23.90
2018-03-28T08:25:22.344Z,22.80
2018-03-28T08:27:51.212Z,22.07
2018-03-28T08:30:20.055Z,22.33
2018-03-28T08:32:49.707Z,23.93
2018-03-28T08:35:18.904Z,22.70
2018-03-28T08:37:47.740Z,22.70
2018-03-28T08:40:16.607Z,20.73
2018-03-28T08:42:45.440Z,21.20
2018-03-28T08:45:14.419Z,21.63
2018-03-28T08:47:43.272Z,21.63
2018-03-28T08:50:12.112Z,20.30
2018-03-28T08:52:41.009Z,21.03
2018-03-28T08:55:09.848Z,20.63
2018-03-28T08:57:38.825Z,19.80
2018-03-28T09:00:08.331Z,18.30
2018-03-28T09:02:37.407Z,18.03
2018-03-28T09:05:06.414Z,19.40
2018-03-28T09:07:35.280Z,19.13
2018-03-28T09:10:04.179Z,17.77
2018-03-28T09:12:33.837Z,16.87
2018-03-28T09:15:03.116Z,17.57
2018-03-28T09:17:31.988Z,16.23
2018-03-28T09:20:00.830Z,16.10
2018-03-28T09:22:29.736Z,16.40
2018-03-28T09:24:58.598Z,17.67
2018-03-28T09:27:27.444Z,15.53
2018-03-28T09:29:56.304Z,16.10
2018-03-28T09:32:25.154Z,15.37
2018-03-28T09:34:55.020Z,15.97
2018-03-28T09:37:23.919Z,16.43
2018-03-28T09:39:52.754Z,16.23
2018-03-28T09:42:22.234Z,14.50
2018-03-28T09:44:51.098Z,14.83
2018-03-28T09:47:19.930Z,12.57
2018-03-28T09:49:49.795Z,13.43
2018-03-28T09:52:18.739Z,15.73
2018-03-28T09:54:47.718Z,15.60
2018-03-28T09:57:16.558Z,14.47
2018-03-28T09:59:45.449Z,15.20
2018-03-28T10:02:14.308Z,15.00
2018-03-28T10:04:49.790Z,14.00
2018-03-28T10:07:18.624Z,13.30
2018-03-28T10:09:47.491Z,13.57
2018-03-28T10:12:16.392Z,14.53
2018-03-28T10:14:45.228Z,13.47
2018-03-28T10:17:14.070Z,14.30
2018-03-28T10:19:42.929Z,14.00
2018-03-28T10:22:11.771Z,13.73
2018-03-28T10:24:40.681Z,14.00
2018-03-28T10:27:11.040Z,12.57
2018-03-28T10:29:40.229Z,13.40
2018-03-28T10:32:09.700Z,12.93
2018-03-28T10:34:38.584Z,13.43
2018-03-28T10:37:07.764Z,12.67
2018-03-28T10:39:37.366Z,13.43
2018-03-28T10:42:07.126Z,12.95
2018-03-28T10:44:38.903Z,12.70
2018-03-28T10:47:09.450Z,13.43
2018-03-28T10:49:39.024Z,12.17
2018-03-28T10:52:07.859Z,14.63
2018-03-28T10:54:37.586Z,13.10
2018-03-28T10:57:06.461Z,13.55
2018-03-28T10:59:35.316Z,13.23
2018-03-28T11:02:04.207Z,11.80
2018-03-28T11:04:34.074Z,10.53
2018-03-28T11:07:02.941Z,14.20
2018-03-28T11:09:31.800Z,11.07
2018-03-28T11:12:00.680Z,14.33
2018-03-28T11:14:30.275Z,20.17
2018-03-28T11:16:59.340Z,14.60
2018-03-28T11:19:28.200Z,12.43
2018-03-28T11:21:57.062Z,12.60
2018-03-28T11:24:25.902Z,12.13
2018-03-28T11:26:54.748Z,13.70
2018-03-28T11:29:23.624Z,12.13
2018-03-28T11:31:52.491Z,11.90
2018-03-28T11:34:22.117Z,11.70
2018-03-28T11:36:51.016Z,11.70
2018-03-28T11:39:19.862Z,13.13
2018-03-28T11:41:49.680Z,12.53
2018-03-28T11:44:19.064Z,10.23
2018-03-28T11:46:47.906Z,8.80
2018-03-28T11:49:16.732Z,8.70
2018-03-28T11:51:45.610Z,8.53
2018-03-28T11:54:14.443Z,9.37
2018-03-28T11:56:43.398Z,9.43
2018-03-28T11:59:12.288Z,10.17
2018-03-28T12:01:41.124Z,9.73
2018-03-28T12:04:10.098Z,9.20
2018-03-28T12:06:38.964Z,8.63
2018-03-28T12:09:07.850Z,9.30
2018-03-28T12:11:36.683Z,7.90
2018-03-28T12:14:05.558Z,7.80
2018-03-28T12:16:34.393Z,9.23
2018-03-28T12:19:03.268Z,7.60
2018-03-28T12:21:32.154Z,8.83
2018-03-28T12:24:01.016Z,7.83
2018-03-28T12:26:29.848Z,7.33
2018-03-28T12:28:59.625Z,7.63
2018-03-28T12:31:29.188Z,6.93
2018-03-28T12:33:58.045Z,5.23
2018-03-28T12:36:27.166Z,5.97
2018-03-28T12:38:56.003Z,5.60
2018-03-28T12:41:24.852Z,6.03
2018-03-28T12:43:53.756Z,6.00
2018-03-28T12:46:22.597Z,6.40
2018-03-28T12:48:51.443Z,6.20
2018-03-28T12:51:20.312Z,10.50
2018-03-28T12:53:49.172Z,8.53
2018-03-28T12:56:18.014Z,8.37
2018-03-28T12:58:47.711Z,6.93
2018-03-28T13:01:16.776Z,6.53
2018-03-28T13:03:46.310Z,6.30
2018-03-28T13:06:15.186Z,6.53
2018-03-28T13:08:44.028Z,5.73
2018-03-28T13:11:12.880Z,6.07
2018-03-28T13:13:42.083Z,6.63
2018-03-28T13:16:10.925Z,5.80
2018-03-28T13:18:39.764Z,6.07
2018-03-28T13:21:08.639Z,5.70
2018-03-28T13:23:37.480Z,6.20
2018-03-28T13:26:06.404Z,5.30
2018-03-28T13:28:35.262Z,4.90
2018-03-28T13:31:04.220Z,5.40
2018-03-28T13:33:33.059Z,5.93
2018-03-28T13:36:02.600Z,6.13
2018-03-28T13:38:31.480Z,5.33
2018-03-28T13:41:00.307Z,5.67
2018-03-28T13:43:33.022Z,6.43
2018-03-28T13:46:04.848Z,5.60
2018-03-28T13:48:36.934Z,5.83
2018-03-28T13:51:05.830Z,6.03
2018-03-28T13:53:34.737Z,5.47
2018-03-28T13:56:03.591Z,6.00
2018-03-28T13:58:32.435Z,5.97
2018-03-28T14:01:01.290Z,5.47
2018-03-28T14:03:30.122Z,5.23
2018-03-28T14:05:58.953Z,5.80
2018-03-28T14:08:29.238Z,5.63
2018-03-28T14:10:58.078Z,5.83
2018-03-28T14:13:26.920Z,6.07
2018-03-28T14:15:55.825Z,5.87
2018-03-28T14:18:24.662Z,5.47
2018-03-28T14:20:53.552Z,5.00
2018-03-28T14:23:22.485Z,5.17
2018-03-28T14:25:51.341Z,5.40
2018-03-28T14:28:21.055Z,5.60
2018-03-28T14:30:50.559Z,5.90
2018-03-28T14:33:19.395Z,5.77
2018-03-28T14:35:48.233Z,5.80
2018-03-28T14:38:17.099Z,6.70
2018-03-28T14:40:45.939Z,5.77
2018-03-28T14:43:15.663Z,6.27
2018-03-28T14:45:44.603Z,5.40
2018-03-28T14:48:13.555Z,6.17
2018-03-28T14:50:43.343Z,6.47
2018-03-28T14:53:12.224Z,6.67
2018-03-28T14:55:41.069Z,6.30
2018-03-28T14:58:10.823Z,6.93
2018-03-28T15:00:39.749Z,6.80
2018-03-28T15:03:09.124Z,6.63
2018-03-28T15:05:37.972Z,6.53
2018-03-28T15:08:06.856Z,6.73
2018-03-28T15:10:35.701Z,6.67
2018-03-28T15:13:04.581Z,7.30
2018-03-28T15:15:33.719Z,7.50
2018-03-28T15:18:02.635Z,7.07
2018-03-28T15:20:31.512Z,7.10
2018-03-28T15:23:00.460Z,7.07
2018-03-28T15:25:30.148Z,6.90
2018-03-28T15:27:58.987Z,6.93
2018-03-28T15:30:27.980Z,6.37
2018-03-28T15:32:56.827Z,6.87
2018-03-28T15:35:26.014Z,7.13
2018-03-28T15:37:54.956Z,6.70
2018-03-28T15:40:23.818Z,7.07
2018-03-28T15:42:52.711Z,6.80
2018-03-28T15:45:22.121Z,11.27
2018-03-28T15:47:50.968Z,9.90
2018-03-28T15:50:20.764Z,7.07
2018-03-28T15:52:50.428Z,6.57
2018-03-28T15:55:19.348Z,6.77
2018-03-28T15:57:49.664Z,6.10
2018-03-28T16:00:18.601Z,7.70
2018-03-28T16:02:47.686Z,7.90
2018-03-28T16:05:16.602Z,6.70
2018-03-28T16:07:45.466Z,7.97
2018-03-28T16:10:14.300Z,11.10
2018-03-28T16:12:43.159Z,15.97
2018-03-28T16:15:12.742Z,21.23
2018-03-28T16:17:43.716Z,13.67
2018-03-28T16:20:12.574Z,10.60
2018-03-28T16:22:41.649Z,9.10
2018-03-28T16:25:10.508Z,6.50
2018-03-28T16:27:39.372Z,7.10
2018-03-28T16:30:08.232Z,4.57
2018-03-28T16:32:37.056Z,5.23
2018-03-28T16:35:05.920Z,6.20
2018-03-28T16:37:34.785Z,5.30
2018-03-28T16:40:03.656Z,5.40
2018-03-28T16:42:32.526Z,8.03
2018-03-28T16:45:01.356Z,4.83
2018-03-28T16:47:30.246Z,4.43
2018-03-28T16:50:00.002Z,3.93
2018-03-28T16:52:29.838Z,4.57
2018-03-28T16:55:00.421Z,5.33
2018-03-28T16:57:30.289Z,5.43
2018-03-28T17:00:00.092Z,5.07
2018-03-28T17:02:29.905Z,7.43
2018-03-28T17:04:59.318Z,7.90
2018-03-28T17:07:28.170Z,7.37
2018-03-28T17:09:58.536Z,8.20
2018-03-28T17:12:27.380Z,8.60
2018-03-28T17:14:56.774Z,9.23
2018-03-28T17:17:25.680Z,8.10
2018-03-28T17:19:54.540Z,8.60
2018-03-28T17:22:23.386Z,8.40
2018-03-28T17:24:53.098Z,5.97
2018-03-28T17:27:22.635Z,6.10
2018-03-28T17:29:51.514Z,6.03
2018-03-28T17:32:21.232Z,5.50
2018-03-28T17:34:50.578Z,7.13
2018-03-28T17:37:19.574Z,6.00
2018-03-28T17:39:48.441Z,5.33
2018-03-28T17:42:17.281Z,5.70
2018-03-28T17:44:46.130Z,5.33
2018-03-28T17:47:14.973Z,5.57
2018-03-28T17:49:43.813Z,5.63
2018-03-28T17:52:12.678Z,6.33
2018-03-28T17:54:42.056Z,6.97
2018-03-28T17:57:10.945Z,8.07
2018-03-28T17:59:40.683Z,9.60
2018-03-28T18:02:10.307Z,8.20
2018-03-28T18:04:39.143Z,7.93
2018-03-28T18:07:08.001Z,5.90
2018-03-28T18:09:36.854Z,5.60
2018-03-28T18:12:05.753Z,5.57
2018-03-28T18:14:34.583Z,5.47
2018-03-28T18:17:03.422Z,5.50
2018-03-28T18:19:32.288Z,5.27
2018-03-28T18:22:01.374Z,6.00
2018-03-28T18:24:30.207Z,5.63
2018-03-28T18:26:59.099Z,6.10
2018-03-28T18:29:27.967Z,5.97
2018-03-28T18:31:56.812Z,6.33
2018-03-28T18:34:25.684Z,5.60
2018-03-28T18:36:54.567Z,5.80
2018-03-28T18:39:23.405Z,5.83
2018-03-28T18:41:52.931Z,6.43
2018-03-28T18:44:22.448Z,6.30
2018-03-28T18:46:51.958Z,6.23
2018-03-28T18:49:20.850Z,6.20
2018-03-28T18:51:50.756Z,6.37
2018-03-28T18:54:19.612Z,6.57
2018-03-28T18:56:48.449Z,5.80
2018-03-28T18:59:18.150Z,6.53
2018-03-28T19:01:47.010Z,6.57
2018-03-28T19:04:15.849Z,6.57
2018-03-28T19:06:44.683Z,6.57
2018-03-28T19:09:13.550Z,7.47
2018-03-28T19:11:43.206Z,8.43
2018-03-28T19:14:14.068Z,9.10
2018-03-28T19:16:43.175Z,9.37
2018-03-28T19:19:12.842Z,9.13
2018-03-28T19:21:41.694Z,8.67
2018-03-28T19:24:10.664Z,8.30
2018-03-28T19:26:39.459Z,7.53
2018-03-28T19:29:08.380Z,7.80
2018-03-28T19:31:37.222Z,7.67
2018-03-28T19:34:06.974Z,7.47
2018-03-28T19:36:35.848Z,7.87
2018-03-28T19:39:04.682Z,7.73
2018-03-28T19:41:33.524Z,7.70
2018-03-28T19:44:02.380Z,8.50
2018-03-28T19:46:31.225Z,8.30
2018-03-28T19:49:00.064Z,7.70
2018-03-28T19:51:29.854Z,7.80
2018-03-28T19:53:58.676Z,7.00
2018-03-28T19:56:27.906Z,6.70
2018-03-28T19:58:56.847Z,6.50
2018-03-28T20:01:25.778Z,5.70
2018-03-28T20:03:54.618Z,5.57
2018-03-28T20:06:23.487Z,5.77
2018-03-28T20:08:52.326Z,5.17
2018-03-28T20:11:21.220Z,5.37
2018-03-28T20:13:50.098Z,4.67
2018-03-28T20:16:18.944Z,4.67
2018-03-28T20:18:47.805Z,4.63
2018-03-28T20:21:16.689Z,5.00
2018-03-28T20:23:45.675Z,4.70
2018-03-28T20:26:14.528Z,4.63
2018-03-28T20:28:43.374Z,4.80
2018-03-28T20:31:12.263Z,4.57
2018-03-28T20:33:41.767Z,4.77
2018-03-28T20:36:10.625Z,4.60
2018-03-28T20:38:39.478Z,4.10
2018-03-28T20:41:08.339Z,5.07
2018-03-28T20:43:38.187Z,4.60
2018-03-28T20:46:07.693Z,4.70
2018-03-28T20:48:36.583Z,4.77
2018-03-28T20:51:05.471Z,4.97
2018-03-28T20:53:34.323Z,5.67
2018-03-28T20:56:05.959Z,5.17
2018-03-28T20:58:40.155Z,5.50
2018-03-28T21:01:16.512Z,5.33
2018-03-28T21:03:54.028Z,5.20
2018-03-28T21:06:34.096Z,5.90
2018-03-28T21:09:08.593Z,5.10
2018-03-28T21:11:42.043Z,5.60
2018-03-28T21:16:54.151Z,5.50
2018-03-28T21:19:23.603Z,5.80
2018-03-28T21:21:53.254Z,5.20
2018-03-28T21:24:22.110Z,5.40
2018-03-28T21:26:51.866Z,6.10
2018-03-28T21:29:21.739Z,6.53
2018-03-28T21:31:53.473Z,5.90
2018-03-28T21:34:22.674Z,6.27
2018-03-28T21:36:51.537Z,5.97
2018-03-28T21:39:20.405Z,6.13
2018-03-28T21:41:50.222Z,6.17
2018-03-28T21:44:19.064Z,6.00
2018-03-28T21:46:47.918Z,6.27
2018-03-28T21:49:16.752Z,5.90
2018-03-28T21:51:45.590Z,5.93
2018-03-28T21:54:14.988Z,6.10
2018-03-28T21:56:44.542Z,5.60
2018-03-28T21:59:13.375Z,6.00
2018-03-28T22:01:42.246Z,5.83
2018-03-28T22:04:11.077Z,6.23
2018-03-28T22:06:39.934Z,6.97
2018-03-28T22:09:09.705Z,6.33
2018-03-28T22:11:38.860Z,6.63
2018-03-28T22:14:07.749Z,6.33
2018-03-28T22:16:36.636Z,6.87
2018-03-28T22:19:06.262Z,6.80
2018-03-28T22:21:35.240Z,6.73
2018-03-28T22:24:04.090Z,7.17
2018-03-28T22:26:32.933Z,7.47
2018-03-28T22:29:02.056Z,7.63
2018-03-28T22:31:30.917Z,8.03
2018-03-28T22:33:59.762Z,7.80
2018-03-28T22:36:29.433Z,8.33
2018-03-28T22:38:58.286Z,8.40
2018-03-28T22:41:27.205Z,8.23
2018-03-28T22:43:56.731Z,7.77
2018-03-28T22:46:25.603Z,7.87
2018-03-28T22:48:55.916Z,7.40
2018-03-28T22:51:24.890Z,7.70
2018-03-28T22:53:53.780Z,7.80
2018-03-28T22:56:22.618Z,8.17
2018-03-28T22:58:51.572Z,8.53
2018-03-28T23:01:20.447Z,8.77
2018-03-28T23:03:50.531Z,8.87
2018-03-28T23:06:19.380Z,8.67
2018-03-28T23:08:48.574Z,9.70
2018-03-28T23:11:17.444Z,9.00
2018-03-28T23:13:46.304Z,9.63
2018-03-28T23:16:15.145Z,9.03
2018-03-28T23:18:44.082Z,9.30
2018-03-28T23:21:12.947Z,9.13
2018-03-28T23:23:42.028Z,9.23
2018-03-28T23:26:10.892Z,8.27
2018-03-28T23:28:39.779Z,9.00
2018-03-28T23:31:10.021Z,9.60
2018-03-28T23:33:38.945Z,7.90
2018-03-28T23:36:07.813Z,9.57
2018-03-28T23:38:36.650Z,9.53
2018-03-28T23:41:05.558Z,9.77
2018-03-28T23:43:34.397Z,10.50
2018-03-28T23:46:03.279Z,10.53
2018-03-28T23:48:32.144Z,10.90
2018-03-28T23:51:03.311Z,12.80
2018-03-28T23:53:32.175Z,12.57
2018-03-28T23:56:01.477Z,14.13
2018-03-28T23:58:30.332Z,13.13
